sensor_id;sensor_type;location;lat;lon;timestamp;P1;durP1;ratioP1;P2;durP2;ratioP2
46463;SDS011;32161;48.148;-1.554;2023-05-07T00:02:20;3.10;;;2.40;;
46463;SDS011;32161;48.148;-1.554;2023-05-07T00:04:47;2.92;;;2.35;;
46463;SDS011;32161;48.148;-1.554;2023-05-07T00:07:15;5.72;;;2.65;;
46463;SDS011;32161;48.148;-1.554;2023-05-07T00:09:43;2.83;;;2.47;;
46463;SDS011;32161;48.148;-1.554;2023-05-07T00:12:10;6.72;;;2.47;;
46463;SDS011;32161;48.148;-1.554;2023-05-07T00:14:39;6.25;;;2.80;;
46463;SDS011;32161;48.148;-1.554;2023-05-07T00:17:07;6.40;;;3.00;;
46463;SDS011;32161;48.148;-1.554;2023-05-07T00:19:34;8.98;;;2.80;;
46463;SDS011;32161;48.148;-1.554;2023-05-07T00:22:02;6.57;;;3.17;;
46463;SDS011;32161;48.148;-1.554;2023-05-07T00:24:30;8.23;;;3.47;;
46463;SDS011;32161;48.148;-1.554;2023-05-07T00:26:57;6.15;;;3.75;;
46463;SDS011;32161;48.148;-1.554;2023-05-07T00:29:25;5.30;;;3.10;;
46463;SDS011;32161;48.148;-1.554;2023-05-07T00:31:54;7.75;;;2.95;;
46463;SDS011;32161;48.148;-1.554;2023-05-07T00:34:22;4.85;;;2.50;;
46463;SDS011;32161;48.148;-1.554;2023-05-07T00:36:49;5.75;;;3.38;;
46463;SDS011;32161;48.148;-1.554;2023-05-07T00:39:17;7.72;;;3.38;;
46463;SDS011;32161;48.148;-1.554;2023-05-07T00:41:44;5.22;;;2.72;;
46463;SDS011;32161;48.148;-1.554;2023-05-07T00:44:12;6.80;;;2.90;;
46463;SDS011;32161;48.148;-1.554;2023-05-07T00:46:40;8.63;;;2.83;;
46463;SDS011;32161;48.148;-1.554;2023-05-07T00:49:09;7.68;;;3.50;;
46463;SDS011;32161;48.148;-1.554;2023-05-07T00:51:37;6.78;;;2.80;;
46463;SDS011;32161;48.148;-1.554;2023-05-07T00:54:05;6.47;;;3.40;;
46463;SDS011;32161;48.148;-1.554;2023-05-07T00:56:32;9.27;;;3.08;;
46463;SDS011;32161;48.148;-1.554;2023-05-07T00:59:01;7.05;;;3.45;;
46463;SDS011;32161;48.148;-1.554;2023-05-07T01:01:28;7.22;;;2.92;;
46463;SDS011;32161;48.148;-1.554;2023-05-07T01:03:57;10.23;;;3.47;;
46463;SDS011;32161;48.148;-1.554;2023-05-07T01:06:26;9.63;;;3.42;;
46463;SDS011;32161;48.148;-1.554;2023-05-07T01:08:56;6.20;;;3.88;;
46463;SDS011;32161;48.148;-1.554;2023-05-07T01:11:24;6.18;;;2.95;;
46463;SDS011;32161;48.148;-1.554;2023-05-07T01:13:52;9.90;;;3.40;;
46463;SDS011;32161;48.148;-1.554;2023-05-07T01:16:20;5.85;;;2.90;;
46463;SDS011;32161;48.148;-1.554;2023-05-07T01:18:47;6.10;;;3.00;;
46463;SDS011;32161;48.148;-1.554;2023-05-07T01:21:16;10.35;;;3.35;;
46463;SDS011;32161;48.148;-1.554;2023-05-07T01:23:46;10.20;;;3.92;;
46463;SDS011;32161;48.148;-1.554;2023-05-07T01:26:14;6.25;;;2.83;;
46463;SDS011;32161;48.148;-1.554;2023-05-07T01:28:44;4.68;;;2.97;;
46463;SDS011;32161;48.148;-1.554;2023-05-07T01:31:12;5.53;;;2.30;;
46463;SDS011;32161;48.148;-1.554;2023-05-07T01:33:42;7.70;;;2.63;;
46463;SDS011;32161;48.148;-1.554;2023-05-07T01:36:12;6.38;;;2.88;;
46463;SDS011;32161;48.148;-1.554;2023-05-07T01:38:41;2.78;;;2.30;;
46463;SDS011;32161;48.148;-1.554;2023-05-07T01:41:11;4.35;;;2.60;;
46463;SDS011;32161;48.148;-1.554;2023-05-07T01:43:39;7.93;;;2.75;;
46463;SDS011;32161;48.148;-1.554;2023-05-07T01:46:07;4.88;;;3.03;;
46463;SDS011;32161;48.148;-1.554;2023-05-07T01:48:37;3.38;;;2.30;;
46463;SDS011;32161;48.148;-1.554;2023-05-07T01:51:05;4.57;;;2.08;;
46463;SDS011;32161;48.148;-1.554;2023-05-07T01:53:38;2.33;;;2.17;;
46463;SDS011;32161;48.148;-1.554;2023-05-07T01:56:08;4.75;;;2.58;;
46463;SDS011;32161;48.148;-1.554;2023-05-07T01:58:37;4.60;;;2.17;;
46463;SDS011;32161;48.148;-1.554;2023-05-07T02:01:05;5.30;;;2.45;;
46463;SDS011;32161;48.148;-1.554;2023-05-07T02:03:32;5.35;;;2.50;;
46463;SDS011;32161;48.148;-1.554;2023-05-07T02:06:00;2.67;;;2.42;;
46463;SDS011;32161;48.148;-1.554;2023-05-07T02:08:27;4.53;;;2.88;;
46463;SDS011;32161;48.148;-1.554;2023-05-07T02:10:55;2.88;;;2.65;;
46463;SDS011;32161;48.148;-1.554;2023-05-07T02:13:25;2.72;;;2.17;;
46463;SDS011;32161;48.148;-1.554;2023-05-07T02:15:55;2.25;;;2.05;;
46463;SDS011;32161;48.148;-1.554;2023-05-07T02:18:22;4.10;;;1.80;;
46463;SDS011;32161;48.148;-1.554;2023-05-07T02:20:50;2.55;;;2.30;;
46463;SDS011;32161;48.148;-1.554;2023-05-07T02:23:17;6.85;;;2.00;;
46463;SDS011;32161;48.148;-1.554;2023-05-07T02:25:45;2.80;;;2.33;;
46463;SDS011;32161;48.148;-1.554;2023-05-07T02:28:13;2.95;;;2.30;;
46463;SDS011;32161;48.148;-1.554;2023-05-07T02:30:42;5.18;;;2.20;;
46463;SDS011;32161;48.148;-1.554;2023-05-07T02:33:09;4.63;;;2.00;;
46463;SDS011;32161;48.148;-1.554;2023-05-07T02:35:37;3.45;;;2.30;;
46463;SDS011;32161;48.148;-1.554;2023-05-07T02:38:05;2.88;;;2.05;;
46463;SDS011;32161;48.148;-1.554;2023-05-07T02:40:32;3.08;;;2.05;;
46463;SDS011;32161;48.148;-1.554;2023-05-07T02:43:03;3.85;;;1.88;;
46463;SDS011;32161;48.148;-1.554;2023-05-07T02:45:31;6.82;;;2.47;;
46463;SDS011;32161;48.148;-1.554;2023-05-07T02:48:00;10.85;;;3.45;;
46463;SDS011;32161;48.148;-1.554;2023-05-07T02:50:28;3.88;;;2.72;;
46463;SDS011;32161;48.148;-1.554;2023-05-07T02:52:55;8.55;;;2.83;;
46463;SDS011;32161;48.148;-1.554;2023-05-07T02:55:23;4.72;;;3.03;;
46463;SDS011;32161;48.148;-1.554;2023-05-07T02:57:51;6.80;;;2.50;;
46463;SDS011;32161;48.148;-1.554;2023-05-07T03:00:18;10.07;;;3.20;;
46463;SDS011;32161;48.148;-1.554;2023-05-07T03:02:47;6.93;;;3.15;;
46463;SDS011;32161;48.148;-1.554;2023-05-07T03:05:18;7.03;;;3.33;;
46463;SDS011;32161;48.148;-1.554;2023-05-07T03:07:46;4.40;;;2.58;;
46463;SDS011;32161;48.148;-1.554;2023-05-07T03:10:13;2.75;;;2.55;;
46463;SDS011;32161;48.148;-1.554;2023-05-07T03:12:41;3.13;;;2.85;;
46463;SDS011;32161;48.148;-1.554;2023-05-07T03:15:09;4.00;;;2.60;;
46463;SDS011;32161;48.148;-1.554;2023-05-07T03:17:37;4.20;;;2.90;;
46463;SDS011;32161;48.148;-1.554;2023-05-07T03:20:05;6.55;;;4.03;;
46463;SDS011;32161;48.148;-1.554;2023-05-07T03:22:37;4.35;;;3.22;;
46463;SDS011;32161;48.148;-1.554;2023-05-07T03:25:05;6.00;;;2.75;;
46463;SDS011;32161;48.148;-1.554;2023-05-07T03:27:35;3.10;;;2.65;;
46463;SDS011;32161;48.148;-1.554;2023-05-07T03:30:03;4.80;;;2.85;;
46463;SDS011;32161;48.148;-1.554;2023-05-07T03:32:32;3.63;;;2.85;;
46463;SDS011;32161;48.148;-1.554;2023-05-07T03:35:00;7.97;;;2.90;;
46463;SDS011;32161;48.148;-1.554;2023-05-07T03:37:28;5.65;;;3.05;;
46463;SDS011;32161;48.148;-1.554;2023-05-07T03:39:57;9.00;;;3.65;;
46463;SDS011;32161;48.148;-1.554;2023-05-07T03:42:25;3.22;;;2.80;;
46463;SDS011;32161;48.148;-1.554;2023-05-07T03:44:52;5.38;;;3.15;;
46463;SDS011;32161;48.148;-1.554;2023-05-07T03:47:20;7.30;;;3.20;;
46463;SDS011;32161;48.148;-1.554;2023-05-07T03:49:47;7.20;;;3.63;;
46463;SDS011;32161;48.148;-1.554;2023-05-07T03:52:15;5.97;;;3.45;;
46463;SDS011;32161;48.148;-1.554;2023-05-07T03:54:47;9.50;;;4.03;;
46463;SDS011;32161;48.148;-1.554;2023-05-07T03:57:16;7.00;;;3.30;;
46463;SDS011;32161;48.148;-1.554;2023-05-07T03:59:44;10.82;;;3.70;;
46463;SDS011;32161;48.148;-1.554;2023-05-07T04:02:11;8.50;;;3.47;;
46463;SDS011;32161;48.148;-1.554;2023-05-07T04:04:39;11.27;;;4.10;;
46463;SDS011;32161;48.148;-1.554;2023-05-07T04:07:06;14.40;;;3.58;;
46463;SDS011;32161;48.148;-1.554;2023-05-07T04:09:35;6.13;;;3.28;;
46463;SDS011;32161;48.148;-1.554;2023-05-07T04:12:02;4.95;;;3.08;;
46463;SDS011;32161;48.148;-1.554;2023-05-07T04:14:32;12.40;;;3.33;;
46463;SDS011;32161;48.148;-1.554;2023-05-07T04:17:00;9.18;;;3.28;;
46463;SDS011;32161;48.148;-1.554;2023-05-07T04:19:27;9.00;;;3.30;;
46463;SDS011;32161;48.148;-1.554;2023-05-07T04:21:55;6.82;;;3.70;;
46463;SDS011;32161;48.148;-1.554;2023-05-07T04:24:23;6.65;;;3.50;;
46463;SDS011;32161;48.148;-1.554;2023-05-07T04:26:50;10.52;;;3.60;;
46463;SDS011;32161;48.148;-1.554;2023-05-07T04:29:18;9.48;;;4.10;;
46463;SDS011;32161;48.148;-1.554;2023-05-07T04:31:47;6.30;;;3.08;;
46463;SDS011;32161;48.148;-1.554;2023-05-07T04:34:15;9.05;;;3.63;;
46463;SDS011;32161;48.148;-1.554;2023-05-07T04:36:42;10.00;;;4.13;;
46463;SDS011;32161;48.148;-1.554;2023-05-07T04:39:11;8.93;;;3.67;;
46463;SDS011;32161;48.148;-1.554;2023-05-07T04:41:38;5.63;;;3.50;;
46463;SDS011;32161;48.148;-1.554;2023-05-07T04:44:06;8.88;;;3.40;;
46463;SDS011;32161;48.148;-1.554;2023-05-07T04:46:34;11.63;;;3.60;;
46463;SDS011;32161;48.148;-1.554;2023-05-07T04:49:03;7.63;;;3.50;;
46463;SDS011;32161;48.148;-1.554;2023-05-07T04:51:30;10.38;;;3.75;;
46463;SDS011;32161;48.148;-1.554;2023-05-07T04:53:58;6.93;;;3.28;;
46463;SDS011;32161;48.148;-1.554;2023-05-07T04:56:27;7.18;;;3.53;;
46463;SDS011;32161;48.148;-1.554;2023-05-07T04:58:55;6.90;;;2.80;;
46463;SDS011;32161;48.148;-1.554;2023-05-07T05:01:22;7.72;;;3.53;;
46463;SDS011;32161;48.148;-1.554;2023-05-07T05:03:50;11.88;;;3.58;;
46463;SDS011;32161;48.148;-1.554;2023-05-07T05:06:19;6.30;;;3.30;;
46463;SDS011;32161;48.148;-1.554;2023-05-07T05:08:47;6.38;;;3.20;;
46463;SDS011;32161;48.148;-1.554;2023-05-07T05:11:14;5.28;;;3.17;;
46463;SDS011;32161;48.148;-1.554;2023-05-07T05:13:42;5.30;;;2.92;;
46463;SDS011;32161;48.148;-1.554;2023-05-07T05:16:09;7.00;;;3.17;;
46463;SDS011;32161;48.148;-1.554;2023-05-07T05:18:37;5.82;;;3.60;;
46463;SDS011;32161;48.148;-1.554;2023-05-07T05:21:05;4.93;;;3.00;;
46463;SDS011;32161;48.148;-1.554;2023-05-07T05:23:34;7.38;;;3.42;;
46463;SDS011;32161;48.148;-1.554;2023-05-07T05:26:02;6.95;;;2.85;;
46463;SDS011;32161;48.148;-1.554;2023-05-07T05:28:29;6.53;;;3.13;;
46463;SDS011;32161;48.148;-1.554;2023-05-07T05:30:57;7.00;;;3.03;;
46463;SDS011;32161;48.148;-1.554;2023-05-07T05:33:24;11.00;;;4.10;;
46463;SDS011;32161;48.148;-1.554;2023-05-07T05:35:53;4.63;;;3.35;;
46463;SDS011;32161;48.148;-1.554;2023-05-07T05:38:20;5.43;;;3.85;;
46463;SDS011;32161;48.148;-1.554;2023-05-07T05:40:49;6.13;;;3.22;;
46463;SDS011;32161;48.148;-1.554;2023-05-07T05:43:17;5.35;;;3.47;;
46463;SDS011;32161;48.148;-1.554;2023-05-07T05:45:44;7.93;;;2.97;;
46463;SDS011;32161;48.148;-1.554;2023-05-07T05:48:12;6.20;;;3.63;;
46463;SDS011;32161;48.148;-1.554;2023-05-07T05:50:41;3.75;;;3.22;;
46463;SDS011;32161;48.148;-1.554;2023-05-07T05:53:09;6.85;;;3.30;;
46463;SDS011;32161;48.148;-1.554;2023-05-07T05:55:36;6.60;;;3.35;;
46463;SDS011;32161;48.148;-1.554;2023-05-07T05:58:05;5.90;;;3.50;;
46463;SDS011;32161;48.148;-1.554;2023-05-07T06:00:33;9.10;;;3.42;;
46463;SDS011;32161;48.148;-1.554;2023-05-07T06:03:00;8.57;;;3.60;;
46463;SDS011;32161;48.148;-1.554;2023-05-07T06:05:28;5.50;;;3.30;;
46463;SDS011;32161;48.148;-1.554;2023-05-07T06:07:56;7.38;;;3.90;;
46463;SDS011;32161;48.148;-1.554;2023-05-07T06:10:23;7.30;;;3.78;;
46463;SDS011;32161;48.148;-1.554;2023-05-07T06:12:52;6.45;;;3.83;;
46463;SDS011;32161;48.148;-1.554;2023-05-07T06:15:21;10.55;;;3.90;;
46463;SDS011;32161;48.148;-1.554;2023-05-07T06:17:49;4.68;;;3.70;;
46463;SDS011;32161;48.148;-1.554;2023-05-07T06:20:16;10.90;;;3.88;;
46463;SDS011;32161;48.148;-1.554;2023-05-07T06:22:44;8.52;;;3.67;;
46463;SDS011;32161;48.148;-1.554;2023-05-07T06:25:11;8.73;;;4.30;;
46463;SDS011;32161;48.148;-1.554;2023-05-07T06:27:39;6.82;;;3.95;;
46463;SDS011;32161;48.148;-1.554;2023-05-07T06:30:07;4.68;;;3.60;;
46463;SDS011;32161;48.148;-1.554;2023-05-07T06:32:36;6.20;;;4.00;;
46463;SDS011;32161;48.148;-1.554;2023-05-07T06:35:04;7.57;;;3.55;;
46463;SDS011;32161;48.148;-1.554;2023-05-07T06:37:32;3.85;;;3.00;;
46463;SDS011;32161;48.148;-1.554;2023-05-07T06:40:00;4.50;;;2.55;;
46463;SDS011;32161;48.148;-1.554;2023-05-07T06:42:27;5.00;;;2.78;;
46463;SDS011;32161;48.148;-1.554;2023-05-07T06:44:55;2.35;;;2.15;;
46463;SDS011;32161;48.148;-1.554;2023-05-07T06:47:23;2.10;;;1.98;;
46463;SDS011;32161;48.148;-1.554;2023-05-07T06:49:52;2.65;;;2.30;;
46463;SDS011;32161;48.148;-1.554;2023-05-07T06:52:19;1.83;;;1.73;;
46463;SDS011;32161;48.148;-1.554;2023-05-07T06:54:47;1.70;;;1.52;;
46463;SDS011;32161;48.148;-1.554;2023-05-07T06:57:14;2.03;;;1.90;;
46463;SDS011;32161;48.148;-1.554;2023-05-07T06:59:42;1.88;;;1.77;;
46463;SDS011;32161;48.148;-1.554;2023-05-07T07:02:09;2.05;;;1.95;;
46463;SDS011;32161;48.148;-1.554;2023-05-07T07:04:37;4.38;;;3.95;;
46463;SDS011;32161;48.148;-1.554;2023-05-07T07:07:06;5.55;;;4.63;;
46463;SDS011;32161;48.148;-1.554;2023-05-07T07:09:34;5.88;;;4.88;;
46463;SDS011;32161;48.148;-1.554;2023-05-07T07:12:02;5.28;;;4.78;;
46463;SDS011;32161;48.148;-1.554;2023-05-07T07:14:30;4.50;;;4.10;;
46463;SDS011;32161;48.148;-1.554;2023-05-07T07:16:57;5.03;;;4.50;;
46463;SDS011;32161;48.148;-1.554;2023-05-07T07:19:25;4.78;;;4.38;;
46463;SDS011;32161;48.148;-1.554;2023-05-07T07:21:53;6.20;;;5.55;;
46463;SDS011;32161;48.148;-1.554;2023-05-07T07:24:22;5.60;;;5.10;;
46463;SDS011;32161;48.148;-1.554;2023-05-07T07:26:49;6.20;;;5.60;;
46463;SDS011;32161;48.148;-1.554;2023-05-07T07:29:17;6.50;;;5.60;;
46463;SDS011;32161;48.148;-1.554;2023-05-07T07:31:44;5.18;;;4.70;;
46463;SDS011;32161;48.148;-1.554;2023-05-07T07:34:12;4.53;;;4.20;;
46463;SDS011;32161;48.148;-1.554;2023-05-07T07:36:40;5.18;;;4.53;;
46463;SDS011;32161;48.148;-1.554;2023-05-07T07:39:07;6.18;;;5.50;;
46463;SDS011;32161;48.148;-1.554;2023-05-07T07:41:37;5.70;;;5.18;;
46463;SDS011;32161;48.148;-1.554;2023-05-07T07:44:04;10.10;;;5.45;;
46463;SDS011;32161;48.148;-1.554;2023-05-07T07:46:32;7.13;;;6.22;;
46463;SDS011;32161;48.148;-1.554;2023-05-07T07:49:00;6.82;;;6.13;;
46463;SDS011;32161;48.148;-1.554;2023-05-07T07:51:27;7.28;;;6.68;;
46463;SDS011;32161;48.148;-1.554;2023-05-07T07:53:55;5.72;;;5.22;;
46463;SDS011;32161;48.148;-1.554;2023-05-07T07:56:23;7.10;;;6.28;;
46463;SDS011;32161;48.148;-1.554;2023-05-07T07:58:52;7.97;;;6.53;;
46463;SDS011;32161;48.148;-1.554;2023-05-07T08:01:20;7.75;;;5.63;;
46463;SDS011;32161;48.148;-1.554;2023-05-07T08:03:47;6.35;;;5.57;;
46463;SDS011;32161;48.148;-1.554;2023-05-07T08:06:15;5.68;;;5.18;;
46463;SDS011;32161;48.148;-1.554;2023-05-07T08:08:43;5.57;;;5.07;;
46463;SDS011;32161;48.148;-1.554;2023-05-07T08:11:10;6.65;;;5.55;;
46463;SDS011;32161;48.148;-1.554;2023-05-07T08:13:38;6.82;;;5.38;;
46463;SDS011;32161;48.148;-1.554;2023-05-07T08:16:07;6.50;;;5.78;;
46463;SDS011;32161;48.148;-1.554;2023-05-07T08:18:36;6.28;;;5.18;;
46463;SDS011;32161;48.148;-1.554;2023-05-07T08:21:04;6.18;;;5.28;;
46463;SDS011;32161;48.148;-1.554;2023-05-07T08:23:32;6.72;;;6.13;;
46463;SDS011;32161;48.148;-1.554;2023-05-07T08:25:59;6.85;;;5.53;;
46463;SDS011;32161;48.148;-1.554;2023-05-07T08:28:27;7.22;;;5.38;;
46463;SDS011;32161;48.148;-1.554;2023-05-07T08:30:55;9.25;;;5.93;;
46463;SDS011;32161;48.148;-1.554;2023-05-07T08:33:26;7.82;;;5.70;;
46463;SDS011;32161;48.148;-1.554;2023-05-07T08:35:54;6.53;;;5.68;;
46463;SDS011;32161;48.148;-1.554;2023-05-07T08:38:22;4.40;;;3.85;;
46463;SDS011;32161;48.148;-1.554;2023-05-07T08:40:49;6.05;;;4.18;;
46463;SDS011;32161;48.148;-1.554;2023-05-07T08:43:17;4.90;;;4.38;;
46463;SDS011;32161;48.148;-1.554;2023-05-07T08:45:45;4.18;;;3.88;;
46463;SDS011;32161;48.148;-1.554;2023-05-07T08:48:20;4.15;;;3.75;;
46463;SDS011;32161;48.148;-1.554;2023-05-07T08:50:52;7.45;;;4.05;;
46463;SDS011;32161;48.148;-1.554;2023-05-07T08:53:20;5.10;;;3.67;;
46463;SDS011;32161;48.148;-1.554;2023-05-07T08:55:48;4.35;;;3.67;;
46463;SDS011;32161;48.148;-1.554;2023-05-07T08:58:15;3.97;;;3.67;;
46463;SDS011;32161;48.148;-1.554;2023-05-07T09:00:43;6.35;;;3.97;;
46463;SDS011;32161;48.148;-1.554;2023-05-07T09:03:11;4.30;;;3.47;;
46463;SDS011;32161;48.148;-1.554;2023-05-07T09:05:39;7.82;;;4.13;;
46463;SDS011;32161;48.148;-1.554;2023-05-07T09:08:13;3.67;;;3.42;;
46463;SDS011;32161;48.148;-1.554;2023-05-07T09:10:42;3.90;;;3.53;;
46463;SDS011;32161;48.148;-1.554;2023-05-07T09:13:11;4.63;;;3.65;;
46463;SDS011;32161;48.148;-1.554;2023-05-07T09:15:39;3.83;;;3.17;;
46463;SDS011;32161;48.148;-1.554;2023-05-07T09:18:07;3.15;;;2.95;;
46463;SDS011;32161;48.148;-1.554;2023-05-07T09:20:36;4.68;;;3.05;;
46463;SDS011;32161;48.148;-1.554;2023-05-07T09:23:03;3.35;;;2.78;;
46463;SDS011;32161;48.148;-1.554;2023-05-07T09:25:34;2.58;;;2.35;;
46463;SDS011;32161;48.148;-1.554;2023-05-07T09:28:04;2.70;;;2.50;;
46463;SDS011;32161;48.148;-1.554;2023-05-07T09:30:32;2.15;;;2.05;;
46463;SDS011;32161;48.148;-1.554;2023-05-07T09:33:01;3.63;;;2.60;;
46463;SDS011;32161;48.148;-1.554;2023-05-07T09:35:30;2.70;;;2.50;;
46463;SDS011;32161;48.148;-1.554;2023-05-07T09:37:58;2.92;;;2.83;;
46463;SDS011;32161;48.148;-1.554;2023-05-07T09:40:27;3.05;;;2.50;;
46463;SDS011;32161;48.148;-1.554;2023-05-07T09:43:07;2.47;;;2.22;;
46463;SDS011;32161;48.148;-1.554;2023-05-07T09:45:36;2.50;;;2.37;;
46463;SDS011;32161;48.148;-1.554;2023-05-07T09:48:04;2.40;;;2.30;;
46463;SDS011;32161;48.148;-1.554;2023-05-07T09:50:35;2.60;;;2.42;;
46463;SDS011;32161;48.148;-1.554;2023-05-07T09:53:07;1.95;;;1.85;;
46463;SDS011;32161;48.148;-1.554;2023-05-07T09:55:38;2.13;;;1.88;;
46463;SDS011;32161;48.148;-1.554;2023-05-07T09:58:08;2.78;;;2.58;;
46463;SDS011;32161;48.148;-1.554;2023-05-07T10:00:39;1.70;;;1.60;;
46463;SDS011;32161;48.148;-1.554;2023-05-07T10:03:07;1.80;;;1.42;;
46463;SDS011;32161;48.148;-1.554;2023-05-07T10:05:37;2.35;;;2.25;;
46463;SDS011;32161;48.148;-1.554;2023-05-07T10:08:09;5.30;;;2.38;;
46463;SDS011;32161;48.148;-1.554;2023-05-07T10:10:37;2.47;;;2.25;;
46463;SDS011;32161;48.148;-1.554;2023-05-07T10:13:08;2.50;;;2.30;;
46463;SDS011;32161;48.148;-1.554;2023-05-07T10:15:36;1.85;;;1.75;;
46463;SDS011;32161;48.148;-1.554;2023-05-07T10:18:04;1.80;;;1.70;;
46463;SDS011;32161;48.148;-1.554;2023-05-07T10:20:33;1.88;;;1.55;;
46463;SDS011;32161;48.148;-1.554;2023-05-07T10:23:02;1.63;;;1.50;;
46463;SDS011;32161;48.148;-1.554;2023-05-07T10:25:32;2.58;;;2.10;;
46463;SDS011;32161;48.148;-1.554;2023-05-07T10:28:00;2.33;;;2.20;;
46463;SDS011;32161;48.148;-1.554;2023-05-07T10:30:36;2.22;;;1.80;;
46463;SDS011;32161;48.148;-1.554;2023-05-07T10:33:15;2.08;;;1.98;;
46463;SDS011;32161;48.148;-1.554;2023-05-07T10:35:45;1.40;;;1.30;;
46463;SDS011;32161;48.148;-1.554;2023-05-07T10:38:14;1.67;;;1.40;;
46463;SDS011;32161;48.148;-1.554;2023-05-07T10:40:42;1.60;;;1.50;;
46463;SDS011;32161;48.148;-1.554;2023-05-07T10:43:10;1.52;;;1.52;;
46463;SDS011;32161;48.148;-1.554;2023-05-07T10:45:39;1.95;;;1.85;;
46463;SDS011;32161;48.148;-1.554;2023-05-07T10:48:08;1.90;;;1.80;;
46463;SDS011;32161;48.148;-1.554;2023-05-07T10:50:38;2.65;;;2.45;;
46463;SDS011;32161;48.148;-1.554;2023-05-07T10:58:54;4.05;;;3.75;;
46463;SDS011;32161;48.148;-1.554;2023-05-07T11:04:20;6.38;;;3.70;;
46463;SDS011;32161;48.148;-1.554;2023-05-07T11:10:05;4.63;;;3.35;;
46463;SDS011;32161;48.148;-1.554;2023-05-07T11:12:47;3.95;;;3.65;;
46463;SDS011;32161;48.148;-1.554;2023-05-07T11:18:11;4.47;;;4.07;;
46463;SDS011;32161;48.148;-1.554;2023-05-07T11:20:47;4.07;;;3.72;;
46463;SDS011;32161;48.148;-1.554;2023-05-07T11:26:25;4.53;;;3.60;;
46463;SDS011;32161;48.148;-1.554;2023-05-07T11:28:55;5.45;;;3.40;;
46463;SDS011;32161;48.148;-1.554;2023-05-07T11:31:25;5.75;;;3.10;;
46463;SDS011;32161;48.148;-1.554;2023-05-07T11:33:56;3.35;;;2.78;;
46463;SDS011;32161;48.148;-1.554;2023-05-07T11:36:24;5.13;;;3.45;;
46463;SDS011;32161;48.148;-1.554;2023-05-07T11:38:52;3.67;;;3.08;;
46463;SDS011;32161;48.148;-1.554;2023-05-07T11:41:21;4.40;;;3.42;;
46463;SDS011;32161;48.148;-1.554;2023-05-07T11:43:55;3.60;;;3.30;;
46463;SDS011;32161;48.148;-1.554;2023-05-07T11:46:24;4.47;;;3.28;;
46463;SDS011;32161;48.148;-1.554;2023-05-07T11:48:55;3.08;;;2.88;;
46463;SDS011;32161;48.148;-1.554;2023-05-07T11:51:24;3.35;;;2.83;;
46463;SDS011;32161;48.148;-1.554;2023-05-07T11:53:52;2.80;;;2.60;;
46463;SDS011;32161;48.148;-1.554;2023-05-07T11:56:20;4.15;;;2.40;;
46463;SDS011;32161;48.148;-1.554;2023-05-07T11:58:48;4.80;;;2.75;;
46463;SDS011;32161;48.148;-1.554;2023-05-07T12:01:17;7.65;;;2.65;;
46463;SDS011;32161;48.148;-1.554;2023-05-07T12:03:45;4.78;;;2.92;;
46463;SDS011;32161;48.148;-1.554;2023-05-07T12:06:14;9.98;;;4.18;;
46463;SDS011;32161;48.148;-1.554;2023-05-07T12:08:43;3.83;;;3.42;;
46463;SDS011;32161;48.148;-1.554;2023-05-07T12:11:15;7.65;;;3.55;;
46463;SDS011;32161;48.148;-1.554;2023-05-07T12:13:48;10.35;;;3.20;;
46463;SDS011;32161;48.148;-1.554;2023-05-07T12:16:16;6.80;;;3.83;;
46463;SDS011;32161;48.148;-1.554;2023-05-07T12:18:44;6.75;;;3.83;;
46463;SDS011;32161;48.148;-1.554;2023-05-07T12:21:12;7.47;;;3.17;;
46463;SDS011;32161;48.148;-1.554;2023-05-07T12:23:42;8.20;;;3.63;;
46463;SDS011;32161;48.148;-1.554;2023-05-07T12:26:10;4.95;;;2.78;;
46463;SDS011;32161;48.148;-1.554;2023-05-07T12:28:38;7.28;;;3.28;;
46463;SDS011;32161;48.148;-1.554;2023-05-07T12:31:06;6.95;;;2.83;;
46463;SDS011;32161;48.148;-1.554;2023-05-07T12:33:34;7.53;;;3.72;;
46463;SDS011;32161;48.148;-1.554;2023-05-07T12:36:03;10.32;;;3.50;;
46463;SDS011;32161;48.148;-1.554;2023-05-07T12:38:38;4.22;;;2.63;;
46463;SDS011;32161;48.148;-1.554;2023-05-07T12:41:07;5.35;;;2.85;;
46463;SDS011;32161;48.148;-1.554;2023-05-07T12:43:37;9.52;;;2.60;;
46463;SDS011;32161;48.148;-1.554;2023-05-07T12:46:05;8.30;;;2.55;;
46463;SDS011;32161;48.148;-1.554;2023-05-07T12:48:35;3.90;;;2.13;;
46463;SDS011;32161;48.148;-1.554;2023-05-07T12:51:10;6.35;;;2.20;;
46463;SDS011;32161;48.148;-1.554;2023-05-07T12:53:41;4.68;;;2.35;;
46463;SDS011;32161;48.148;-1.554;2023-05-07T12:56:09;4.68;;;2.42;;
46463;SDS011;32161;48.148;-1.554;2023-05-07T12:58:37;4.80;;;2.47;;
46463;SDS011;32161;48.148;-1.554;2023-05-07T13:01:05;3.47;;;1.90;;
46463;SDS011;32161;48.148;-1.554;2023-05-07T13:03:35;4.97;;;2.05;;
46463;SDS011;32161;48.148;-1.554;2023-05-07T13:06:05;6.05;;;2.20;;
46463;SDS011;32161;48.148;-1.554;2023-05-07T13:08:37;2.60;;;2.00;;
46463;SDS011;32161;48.148;-1.554;2023-05-07T13:11:09;4.55;;;2.10;;
46463;SDS011;32161;48.148;-1.554;2023-05-07T13:13:39;3.33;;;1.60;;
46463;SDS011;32161;48.148;-1.554;2023-05-07T13:16:08;9.35;;;2.42;;
46463;SDS011;32161;48.148;-1.554;2023-05-07T13:18:37;4.07;;;1.92;;
46463;SDS011;32161;48.148;-1.554;2023-05-07T13:21:08;3.85;;;1.70;;
46463;SDS011;32161;48.148;-1.554;2023-05-07T13:23:38;5.28;;;2.63;;
46463;SDS011;32161;48.148;-1.554;2023-05-07T13:26:06;4.82;;;1.70;;
46463;SDS011;32161;48.148;-1.554;2023-05-07T13:28:35;3.70;;;1.85;;
46463;SDS011;32161;48.148;-1.554;2023-05-07T13:31:02;5.07;;;1.55;;
46463;SDS011;32161;48.148;-1.554;2023-05-07T13:33:30;2.28;;;1.60;;
46463;SDS011;32161;48.148;-1.554;2023-05-07T13:35:57;4.90;;;1.48;;
46463;SDS011;32161;48.148;-1.554;2023-05-07T13:38:25;1.98;;;1.63;;
46463;SDS011;32161;48.148;-1.554;2023-05-07T13:40:53;4.28;;;2.10;;
46463;SDS011;32161;48.148;-1.554;2023-05-07T13:43:20;3.10;;;1.40;;
46463;SDS011;32161;48.148;-1.554;2023-05-07T13:45:49;4.40;;;1.48;;
46463;SDS011;32161;48.148;-1.554;2023-05-07T13:48:17;2.40;;;1.70;;
46463;SDS011;32161;48.148;-1.554;2023-05-07T13:50:45;9.48;;;2.22;;
46463;SDS011;32161;48.148;-1.554;2023-05-07T13:53:12;3.22;;;1.50;;
46463;SDS011;32161;48.148;-1.554;2023-05-07T13:55:42;3.17;;;1.30;;
46463;SDS011;32161;48.148;-1.554;2023-05-07T13:58:10;4.95;;;1.67;;
46463;SDS011;32161;48.148;-1.554;2023-05-07T14:00:38;6.80;;;1.70;;
46463;SDS011;32161;48.148;-1.554;2023-05-07T14:03:07;1.73;;;1.30;;
46463;SDS011;32161;48.148;-1.554;2023-05-07T14:05:34;3.30;;;1.60;;
46463;SDS011;32161;48.148;-1.554;2023-05-07T14:08:02;3.97;;;1.65;;
46463;SDS011;32161;48.148;-1.554;2023-05-07T14:10:30;2.15;;;1.13;;
46463;SDS011;32161;48.148;-1.554;2023-05-07T14:12:59;3.40;;;1.05;;
46463;SDS011;32161;48.148;-1.554;2023-05-07T14:15:27;2.20;;;1.42;;
46463;SDS011;32161;48.148;-1.554;2023-05-07T14:17:55;3.03;;;1.15;;
46463;SDS011;32161;48.148;-1.554;2023-05-07T14:20:25;2.28;;;1.23;;
46463;SDS011;32161;48.148;-1.554;2023-05-07T14:22:53;1.13;;;0.90;;
46463;SDS011;32161;48.148;-1.554;2023-05-07T14:25:21;1.52;;;0.90;;
46463;SDS011;32161;48.148;-1.554;2023-05-07T14:27:48;2.38;;;1.00;;
46463;SDS011;32161;48.148;-1.554;2023-05-07T14:30:16;2.08;;;0.90;;
46463;SDS011;32161;48.148;-1.554;2023-05-07T14:32:43;2.88;;;1.48;;
46463;SDS011;32161;48.148;-1.554;2023-05-07T14:35:11;3.33;;;1.17;;
46463;SDS011;32161;48.148;-1.554;2023-05-07T14:37:40;3.38;;;1.23;;
46463;SDS011;32161;48.148;-1.554;2023-05-07T14:40:08;3.28;;;1.20;;
46463;SDS011;32161;48.148;-1.554;2023-05-07T14:42:36;2.20;;;1.08;;
46463;SDS011;32161;48.148;-1.554;2023-05-07T14:45:04;4.55;;;1.52;;
46463;SDS011;32161;48.148;-1.554;2023-05-07T14:47:33;1.80;;;0.95;;
46463;SDS011;32161;48.148;-1.554;2023-05-07T14:50:01;3.30;;;1.20;;
46463;SDS011;32161;48.148;-1.554;2023-05-07T14:52:29;4.15;;;1.25;;
46463;SDS011;32161;48.148;-1.554;2023-05-07T14:54:58;2.30;;;1.10;;
46463;SDS011;32161;48.148;-1.554;2023-05-07T14:57:25;3.63;;;1.20;;
46463;SDS011;32161;48.148;-1.554;2023-05-07T14:59:53;3.75;;;1.17;;